Time;durP1;ratioP1;P1;durP2;ratioP2;P2;SDS_P1;SDS_P2;PMS_P1;PMS_P2;Temp;Humidity;BMP_temperature;BMP_pressure;BME280_temperature;BME280_humidity;BME280_pressure;Samples;Min_cycle;Max_cycle;Signal;HPM_P1;HPM_P2
2022/02/19 00:00:16;;;;;;;;;;;22.10;49.00;;;;;;5137867;27;20336;-43
2022/02/19 00:02:43;;;;;;;;;;;22.10;49.00;;;;;;5117923;27;19923;-44
2022/02/19 00:05:10;;;;;;;;;;;22.10;49.00;;;;;;5135976;27;19923;-43
2022/02/19 00:07:37;;;;;;;;;;;22.10;49.00;;;;;;5135689;27;19971;-42
2022/02/19 00:10:04;;;;;;;;;;;22.10;49.00;;;;;;5135641;27;20437;-47
2022/02/19 00:12:31;;;;;;;;;;;22.10;49.00;;;;;;5135900;27;20031;-44
2022/02/19 00:14:58;;;;;;;;;;;22.10;49.00;;;;;;5140692;27;19923;-44
2022/02/19 00:17:25;;;;;;;;;;;22.10;48.90;;;;;;5154937;27;19988;-49
2022/02/19 00:19:53;;;;;;;;;;;22.10;48.90;;;;;;5156240;27;19966;-42
2022/02/19 00:22:20;;;;;;;;;;;22.10;49.00;;;;;;5155966;27;19970;-44
2022/02/19 00:24:48;;;;;;;;;;;22.10;48.90;;;;;;5156420;27;20016;-43
2022/02/19 00:27:16;;;;;;;;;;;22.10;48.90;;;;;;5156336;27;19975;-45
2022/02/19 00:29:43;;;;;;;;;;;22.00;48.90;;;;;;5154813;27;19985;-44
2022/02/19 00:32:10;;;;;;;;;;;22.10;48.90;;;;;;5155852;27;19975;-46
2022/02/19 00:34:38;;;;;;;;;;;22.10;48.90;;;;;;5136834;27;20002;-42
2022/02/19 00:37:05;;;;;;;;;;;22.10;48.90;;;;;;5135429;27;19931;-43
2022/02/19 00:39:32;;;;;;;;;;;22.00;48.80;;;;;;5135118;27;19924;-47
2022/02/19 00:42:02;;;;;;;;;;;22.00;48.80;;;;;;5135260;27;20367;-46
2022/02/19 00:44:30;;;;;;;;;;;22.10;48.90;;;;;;5135001;27;19923;-43
2022/02/19 00:46:59;;;;;;;;;;;22.10;48.80;;;;;;5154685;27;20412;-45
2022/02/19 00:49:27;;;;;;;;;;;22.00;49.40;;;;;;5155517;27;19923;-44
2022/02/19 00:51:55;;;;;;;;;;;22.00;48.80;;;;;;5135065;27;20260;-44
2022/02/19 00:54:22;;;;;;;;;;;22.00;48.80;;;;;;5134864;27;19978;-43
2022/02/19 00:56:49;;;;;;;;;;;22.00;48.80;;;;;;5116673;27;19923;-43
2022/02/19 00:59:16;;;;;;;;;;;22.00;48.80;;;;;;5135011;27;19928;-43
2022/02/19 01:01:43;;;;;;;;;;;22.00;48.80;;;;;;5151141;27;20332;-43
2022/02/19 01:04:10;;;;;;;;;;;22.00;48.80;;;;;;5155454;27;19923;-43
2022/02/19 01:06:37;;;;;;;;;;;22.00;48.80;;;;;;5139015;27;19993;-43
2022/02/19 01:09:05;;;;;;;;;;;22.00;48.80;;;;;;5134665;27;19928;-46
2022/02/19 01:11:32;;;;;;;;;;;22.00;48.70;;;;;;5135435;27;19934;-44
2022/02/19 01:13:59;;;;;;;;;;;22.00;48.70;;;;;;5134939;27;20013;-46
2022/02/19 01:16:26;;;;;;;;;;;22.00;48.70;;;;;;5147136;27;20343;-43
2022/02/19 01:18:53;;;;;;;;;;;22.00;48.70;;;;;;5155053;27;19965;-44
2022/02/19 01:21:20;;;;;;;;;;;22.00;48.70;;;;;;5125383;27;19924;-43
2022/02/19 01:23:47;;;;;;;;;;;22.00;48.70;;;;;;5134802;28;19930;-46
2022/02/19 01:26:14;;;;;;;;;;;22.00;48.70;;;;;;5134420;28;19930;-46
2022/02/19 01:28:40;;;;;;;;;;;22.00;48.70;;;;;;5136421;27;20301;-45
2022/02/19 01:31:09;;;;;;;;;;;22.00;48.70;;;;;;5146959;27;19962;-45
2022/02/19 01:33:36;;;;;;;;;;;22.00;48.70;;;;;;5159824;27;19930;-44
2022/02/19 01:36:03;;;;;;;;;;;22.00;48.70;;;;;;5154652;27;19923;-45
2022/02/19 01:38:30;;;;;;;;;;;22.00;48.70;;;;;;5138651;27;19953;-45
2022/02/19 01:40:58;;;;;;;;;;;22.00;48.70;;;;;;5139500;27;19924;-43
2022/02/19 01:43:25;;;;;;;;;;;22.00;48.70;;;;;;5120429;27;19959;-45
2022/02/19 01:45:52;;;;;;;;;;;22.00;48.70;;;;;;5143398;27;19927;-43
2022/02/19 01:48:19;;;;;;;;;;;22.00;48.70;;;;;;5140862;27;19966;-46
2022/02/19 01:50:47;;;;;;;;;;;22.00;48.70;;;;;;5158423;27;19958;-49
2022/02/19 01:53:15;;;;;;;;;;;22.00;48.70;;;;;;5120015;27;20413;-48
2022/02/19 01:55:42;;;;;;;;;;;22.00;48.70;;;;;;5120483;27;20022;-49
2022/02/19 01:58:10;;;;;;;;;;;21.90;48.60;;;;;;5138315;27;20015;-46
2022/02/19 02:00:37;;;;;;;;;;;22.00;48.70;;;;;;5139205;27;20382;-47
2022/02/19 02:03:04;;;;;;;;;;;22.00;48.60;;;;;;5159241;27;19930;-45
2022/02/19 02:05:37;;;;;;;;;;;22.00;48.60;;;;;;5158784;27;19958;-49
2022/02/19 02:08:07;;;;;;;;;;;21.90;48.60;;;;;;5159048;27;19984;-44
2022/02/19 02:10:35;;;;;;;;;;;21.90;48.60;;;;;;5159134;27;19923;-45
2022/02/19 02:13:04;;;;;;;;;;;21.90;48.60;;;;;;5159042;27;20029;-44
2022/02/19 02:15:32;;;;;;;;;;;21.90;48.60;;;;;;5157950;27;19923;-47
2022/02/19 02:18:00;;;;;;;;;;;22.00;48.60;;;;;;5147918;27;19984;-47
2022/02/19 02:20:28;;;;;;;;;;;21.90;48.60;;;;;;5138227;27;19923;-46
2022/02/19 02:22:56;;;;;;;;;;;22.00;48.60;;;;;;5137838;27;19923;-44
2022/02/19 02:25:25;;;;;;;;;;;21.90;48.60;;;;;;5137761;27;19977;-51
2022/02/19 02:27:52;;;;;;;;;;;21.90;48.50;;;;;;5138031;27;20355;-45
2022/02/19 02:30:19;;;;;;;;;;;21.90;48.50;;;;;;5137508;27;19930;-46
2022/02/19 02:32:46;;;;;;;;;;;21.90;48.50;;;;;;5154649;27;19923;-47
2022/02/19 02:35:14;;;;;;;;;;;21.90;48.50;;;;;;5158232;27;19923;-46
2022/02/19 02:37:42;;;;;;;;;;;21.90;48.50;;;;;;5158490;27;19927;-42
2022/02/19 02:40:10;;;;;;;;;;;21.90;48.50;;;;;;5142281;27;19969;-47
2022/02/19 02:42:37;;;;;;;;;;;21.90;48.50;;;;;;5137961;27;19949;-47
2022/02/19 02:45:04;;;;;;;;;;;21.90;48.50;;;;;;5137748;27;19924;-45
2022/02/19 02:47:51;;;;;;;;;;;21.90;48.50;;;;;;5138452;27;19923;-47
2022/02/19 02:50:18;;;;;;;;;;;21.90;48.40;;;;;;5158280;27;19923;-44
2022/02/19 02:52:45;;;;;;;;;;;21.90;48.50;;;;;;5157998;27;19935;-49
2022/02/19 02:55:12;;;;;;;;;;;21.90;48.40;;;;;;5157879;27;19973;-48
2022/02/19 02:57:40;;;;;;;;;;;21.90;48.40;;;;;;5158074;27;19923;-44
2022/02/19 03:00:08;;;;;;;;;;;21.90;48.40;;;;;;5157974;27;19926;-48
2022/02/19 03:02:37;;;;;;;;;;;21.90;48.40;;;;;;5142986;27;20397;-46
2022/02/19 03:05:05;;;;;;;;;;;21.90;48.40;;;;;;5136842;27;20431;-49
2022/02/19 03:07:33;;;;;;;;;;;21.90;48.40;;;;;;5136863;27;19934;-44
2022/02/19 03:10:00;;;;;;;;;;;21.90;48.40;;;;;;5136881;27;20375;-46
2022/02/19 03:12:27;;;;;;;;;;;21.90;48.40;;;;;;5137136;27;20014;-48
2022/02/19 03:14:54;;;;;;;;;;;21.90;48.40;;;;;;5136770;27;19924;-49
2022/02/19 03:17:21;;;;;;;;;;;21.90;48.40;;;;;;5146228;27;20022;-49
2022/02/19 03:19:48;;;;;;;;;;;21.90;48.40;;;;;;5157518;27;19923;-49
2022/02/19 03:22:15;;;;;;;;;;;21.90;48.40;;;;;;5157622;27;20014;-49
2022/02/19 03:24:42;;;;;;;;;;;21.90;48.40;;;;;;5141023;27;20382;-46
2022/02/19 03:27:10;;;;;;;;;;;21.90;48.40;;;;;;5136377;27;19954;-42
2022/02/19 03:29:37;;;;;;;;;;;21.90;48.40;;;;;;5136703;27;19988;-46
2022/02/19 03:32:05;;;;;;;;;;;21.90;48.40;;;;;;5142522;27;19987;-49
2022/02/19 03:34:32;;;;;;;;;;;21.90;48.40;;;;;;5157733;27;20003;-45
2022/02/19 03:36:59;;;;;;;;;;;21.90;48.40;;;;;;5157388;27;20002;-49
2022/02/19 03:39:26;;;;;;;;;;;21.90;48.40;;;;;;5157325;27;20019;-47
2022/02/19 03:41:53;;;;;;;;;;;21.80;48.90;;;;;;5156210;27;19927;-46
2022/02/19 03:44:20;;;;;;;;;;;21.90;48.40;;;;;;5156911;27;19930;-43
2022/02/19 03:46:47;;;;;;;;;;;21.90;48.30;;;;;;5137853;27;19943;-46
2022/02/19 03:49:14;;;;;;;;;;;21.90;48.30;;;;;;5157084;27;19992;-45
2022/02/19 03:51:41;;;;;;;;;;;21.90;48.40;;;;;;5156573;27;19981;-45
2022/02/19 03:54:08;;;;;;;;;;;21.80;48.20;;;;;;5157350;27;19930;-45
2022/02/19 03:56:35;;;;;;;;;;;21.80;48.20;;;;;;5156276;27;20318;-44
2022/02/19 03:59:02;;;;;;;;;;;21.90;48.30;;;;;;5156835;27;20002;-43
2022/02/19 04:01:29;;;;;;;;;;;21.80;48.20;;;;;;5157495;27;20349;-42
2022/02/19 04:03:58;;;;;;;;;;;21.80;48.20;;;;;;5156039;27;19929;-44
2022/02/19 04:06:25;;;;;;;;;;;21.80;48.30;;;;;;5156379;27;20409;-46
2022/02/19 04:08:52;;;;;;;;;;;21.80;48.20;;;;;;5156989;27;19975;-45
2022/02/19 04:11:19;;;;;;;;;;;21.80;48.20;;;;;;5156021;27;19958;-44
2022/02/19 04:13:46;;;;;;;;;;;21.90;48.30;;;;;;5156190;27;19995;-46
2022/02/19 04:16:13;;;;;;;;;;;21.90;48.20;;;;;;5137957;27;19923;-45
2022/02/19 04:18:40;;;;;;;;;;;21.90;48.20;;;;;;5154928;27;19968;-43
2022/02/19 04:21:07;;;;;;;;;;;21.80;48.10;;;;;;5156073;27;19923;-43
2022/02/19 04:23:35;;;;;;;;;;;21.80;48.10;;;;;;5156471;27;19923;-45
2022/02/19 04:26:02;;;;;;;;;;;21.80;48.20;;;;;;5156073;27;19923;-42
2022/02/19 04:28:29;;;;;;;;;;;21.80;48.10;;;;;;5155965;27;20014;-47
2022/02/19 04:30:56;;;;;;;;;;;21.80;48.10;;;;;;5155784;27;19975;-43
2022/02/19 04:33:23;;;;;;;;;;;21.80;48.10;;;;;;5155116;27;19923;-44
2022/02/19 04:35:50;;;;;;;;;;;21.80;48.10;;;;;;5155323;27;19966;-42
2022/02/19 04:38:19;;;;;;;;;;;21.80;48.10;;;;;;5156170;27;19927;-43
2022/02/19 04:40:47;;;;;;;;;;;21.80;48.10;;;;;;5156119;27;20001;-45
2022/02/19 04:43:14;;;;;;;;;;;21.80;48.10;;;;;;5156098;27;20014;-44
2022/02/19 04:45:41;;;;;;;;;;;21.80;48.10;;;;;;5155730;27;20014;-46
2022/02/19 04:48:10;;;;;;;;;;;21.80;48.10;;;;;;5136786;27;19923;-45
2022/02/19 04:50:37;;;;;;;;;;;21.80;48.10;;;;;;5155654;27;19923;-45
2022/02/19 04:53:05;;;;;;;;;;;21.80;48.10;;;;;;5135438;27;19972;-45
2022/02/19 04:55:32;;;;;;;;;;;21.80;48.10;;;;;;5135189;27;20000;-43
2022/02/19 04:57:59;;;;;;;;;;;21.80;48.10;;;;;;5134840;27;19930;-46
2022/02/19 05:00:26;;;;;;;;;;;21.80;48.00;;;;;;5134982;27;19937;-43
2022/02/19 05:02:53;;;;;;;;;;;21.80;48.00;;;;;;5120494;27;19923;-42
2022/02/19 05:05:20;;;;;;;;;;;21.80;48.00;;;;;;5155723;27;19923;-44
2022/02/19 05:07:47;;;;;;;;;;;21.80;48.00;;;;;;5155633;27;19923;-42
2022/02/19 05:10:14;;;;;;;;;;;21.80;48.00;;;;;;5155571;27;19930;-44
2022/02/19 05:12:41;;;;;;;;;;;21.80;48.00;;;;;;5155287;27;19923;-43
2022/02/19 05:15:10;;;;;;;;;;;21.80;48.00;;;;;;5155637;27;19973;-43
2022/02/19 05:17:53;;;;;;;;;;;21.80;48.00;;;;;;5154433;27;19958;-46
2022/02/19 05:20:21;;;;;;;;;;;21.80;48.00;;;;;;5153133;27;20415;-43
2022/02/19 05:22:48;;;;;;;;;;;21.80;47.90;;;;;;5134653;27;19923;-46
2022/02/19 05:25:15;;;;;;;;;;;21.80;48.00;;;;;;5134531;27;20391;-42
2022/02/19 05:27:42;;;;;;;;;;;21.80;47.90;;;;;;5134485;28;20340;-44
2022/02/19 05:30:10;;;;;;;;;;;21.80;47.90;;;;;;5134331;28;19976;-44
2022/02/19 05:32:37;;;;;;;;;;;21.80;47.90;;;;;;5134589;27;19924;-45
2022/02/19 05:35:04;;;;;;;;;;;21.80;47.90;;;;;;5134657;27;19931;-43
2022/02/19 05:37:31;;;;;;;;;;;21.80;47.90;;;;;;5134590;28;19923;-45
2022/02/19 05:39:59;;;;;;;;;;;21.80;47.90;;;;;;5134593;28;19953;-43
2022/02/19 05:42:26;;;;;;;;;;;21.80;48.00;;;;;;5134524;28;19928;-46
2022/02/19 05:44:53;;;;;;;;;;;21.80;47.90;;;;;;5134482;28;19928;-43
2022/02/19 05:47:21;;;;;;;;;;;21.80;47.90;;;;;;5135221;27;20294;-45
2022/02/19 05:49:48;;;;;;;;;;;21.80;47.90;;;;;;5153850;27;19974;-43
2022/02/19 05:52:16;;;;;;;;;;;21.80;47.90;;;;;;5155355;27;19963;-44
2022/02/19 05:54:43;;;;;;;;;;;21.80;47.90;;;;;;5155233;27;19976;-42
2022/02/19 05:57:11;;;;;;;;;;;21.80;47.90;;;;;;5154896;27;19926;-44
2022/02/19 05:59:38;;;;;;;;;;;21.80;47.90;;;;;;5155053;27;19923;-46
2022/02/19 06:02:05;;;;;;;;;;;21.80;47.90;;;;;;5155149;27;19970;-45
2022/02/19 06:04:32;;;;;;;;;;;21.80;47.90;;;;;;5154046;27;19977;-46
2022/02/19 06:06:59;;;;;;;;;;;21.80;47.80;;;;;;5154935;27;19970;-42
2022/02/19 06:09:26;;;;;;;;;;;21.80;47.90;;;;;;5154871;27;19975;-45
2022/02/19 06:11:53;;;;;;;;;;;21.80;47.80;;;;;;5154926;27;19975;-48
2022/02/19 06:14:20;;;;;;;;;;;21.80;47.80;;;;;;5137698;27;19927;-46
2022/02/19 06:16:47;;;;;;;;;;;21.80;47.80;;;;;;5137234;27;19923;-43
2022/02/19 06:19:14;;;;;;;;;;;21.80;47.80;;;;;;5146999;27;20366;-45
2022/02/19 06:21:41;;;;;;;;;;;21.80;47.80;;;;;;5158376;27;19923;-45
2022/02/19 06:24:08;;;;;;;;;;;21.80;47.80;;;;;;5158847;27;19923;-43
2022/02/19 06:26:35;;;;;;;;;;;21.80;47.80;;;;;;5158709;27;20331;-47
2022/02/19 06:29:02;;;;;;;;;;;21.80;47.80;;;;;;5146290;27;19972;-47
2022/02/19 06:31:29;;;;;;;;;;;21.80;47.80;;;;;;5137962;27;19984;-46
2022/02/19 06:33:56;;;;;;;;;;;21.80;47.70;;;;;;5143004;27;19976;-44
2022/02/19 06:36:23;;;;;;;;;;;21.80;47.70;;;;;;5158610;27;19936;-46
2022/02/19 06:38:50;;;;;;;;;;;21.80;47.70;;;;;;5158559;27;19923;-49
2022/02/19 06:41:17;;;;;;;;;;;21.80;47.70;;;;;;5158202;27;19929;-47
2022/02/19 06:43:44;;;;;;;;;;;21.80;47.70;;;;;;5150139;27;19946;-45
2022/02/19 06:46:11;;;;;;;;;;;21.80;47.70;;;;;;5137409;27;19923;-50
2022/02/19 06:48:38;;;;;;;;;;;21.80;47.70;;;;;;5138881;27;19923;-42
2022/02/19 06:51:05;;;;;;;;;;;21.90;47.70;;;;;;5158122;27;19988;-45
2022/02/19 06:53:32;;;;;;;;;;;21.90;47.70;;;;;;5158254;27;19930;-44
2022/02/19 06:55:59;;;;;;;;;;;21.90;47.70;;;;;;5158229;27;19924;-44
2022/02/19 06:58:26;;;;;;;;;;;21.90;47.70;;;;;;5158150;27;20321;-44
2022/02/19 07:00:53;;;;;;;;;;;21.90;47.60;;;;;;5156640;27;20399;-43
2022/02/19 07:03:20;;;;;;;;;;;21.90;47.50;;;;;;5158064;27;19966;-43
2022/02/19 07:05:51;;;;;;;;;;;21.90;47.50;;;;;;5157000;27;19930;-43
2022/02/19 07:08:19;;;;;;;;;;;21.90;47.50;;;;;;5157928;27;19923;-46
2022/02/19 07:10:47;;;;;;;;;;;21.90;47.50;;;;;;5157969;27;19927;-46
2022/02/19 07:13:14;;;;;;;;;;;22.00;47.50;;;;;;5157882;27;20002;-44
2022/02/19 07:15:41;;;;;;;;;;;22.00;47.50;;;;;;5136513;27;19923;-44
2022/02/19 07:18:08;;;;;;;;;;;22.00;47.50;;;;;;5136811;27;19924;-44
2022/02/19 07:20:37;;;;;;;;;;;22.00;47.50;;;;;;5152998;27;19923;-44
2022/02/19 07:23:04;;;;;;;;;;;22.00;47.40;;;;;;5157535;27;19930;-44
2022/02/19 07:25:31;;;;;;;;;;;22.00;47.40;;;;;;5157270;27;20014;-44
2022/02/19 07:27:59;;;;;;;;;;;22.00;47.40;;;;;;5157290;27;20387;-46
2022/02/19 07:30:26;;;;;;;;;;;22.00;47.30;;;;;;5157441;27;19976;-43
2022/02/19 07:32:53;;;;;;;;;;;22.00;47.30;;;;;;5141365;27;19931;-46
2022/02/19 07:35:21;;;;;;;;;;;22.00;47.30;;;;;;5148507;27;19945;-44
2022/02/19 07:37:48;;;;;;;;;;;22.00;47.30;;;;;;5157645;27;19923;-46
2022/02/19 07:40:15;;;;;;;;;;;22.00;47.30;;;;;;5157392;27;19975;-44
2022/02/19 07:42:42;;;;;;;;;;;22.00;47.30;;;;;;5157337;27;20331;-45
2022/02/19 07:45:09;;;;;;;;;;;22.00;47.20;;;;;;5157806;27;19976;-42
2022/02/19 07:47:36;;;;;;;;;;;22.00;47.20;;;;;;5146128;27;20263;-44
2022/02/19 07:58:22;;;;;;;;;;;22.10;47.20;;;;;;5157062;27;19923;-44
2022/02/19 08:00:50;;;;;;;;;;;22.00;47.10;;;;;;5156490;27;19976;-46
2022/02/19 08:03:20;;;;;;;;;;;22.00;47.10;;;;;;5156567;27;19930;-44
2022/02/19 08:05:48;;;;;;;;;;;22.10;47.20;;;;;;5152156;27;20015;-43
2022/02/19 08:08:16;;;;;;;;;;;22.10;47.10;;;;;;5135658;27;20386;-45
2022/02/19 08:10:43;;;;;;;;;;;22.10;47.10;;;;;;5135679;27;19928;-47
2022/02/19 08:13:10;;;;;;;;;;;22.10;47.10;;;;;;5134982;27;19924;-47
2022/02/19 08:15:37;;;;;;;;;;;22.10;47.00;;;;;;5135416;27;19923;-48
2022/02/19 08:18:05;;;;;;;;;;;22.10;47.00;;;;;;5116775;27;19970;-46
2022/02/19 08:20:37;;;;;;;;;;;22.10;46.90;;;;;;5145269;27;19923;-44
2022/02/19 08:23:04;;;;;;;;;;;22.10;46.90;;;;;;5154417;27;19927;-49
2022/02/19 08:25:32;;;;;;;;;;;22.20;47.00;;;;;;5156351;27;20276;-47
2022/02/19 08:27:59;;;;;;;;;;;22.20;47.00;;;;;;5155868;27;19976;-51
2022/02/19 08:30:26;;;;;;;;;;;22.20;46.90;;;;;;5155700;27;19923;-49
2022/02/19 08:32:53;;;;;;;;;;;22.20;46.90;;;;;;5156136;27;20025;-45
2022/02/19 08:35:20;;;;;;;;;;;22.20;46.80;;;;;;5154798;27;19923;-44
2022/02/19 08:37:47;;;;;;;;;;;22.20;46.80;;;;;;5155396;27;19968;-46
2022/02/19 08:40:14;;;;;;;;;;;22.20;46.70;;;;;;5156015;27;19991;-46
2022/02/19 08:42:42;;;;;;;;;;;22.30;46.80;;;;;;5155886;27;20378;-46
2022/02/19 08:45:10;;;;;;;;;;;22.30;46.70;;;;;;5155993;27;20005;-47
2022/02/19 08:47:40;;;;;;;;;;;22.30;46.70;;;;;;5155812;27;19923;-46
2022/02/19 08:50:11;;;;;;;;;;;22.30;46.70;;;;;;5154513;27;20021;-50
2022/02/19 08:52:39;;;;;;;;;;;22.30;46.60;;;;;;5155434;27;19923;-47
2022/02/19 08:55:07;;;;;;;;;;;22.40;46.60;;;;;;5155598;27;19930;-48
2022/02/19 08:57:34;;;;;;;;;;;22.40;46.60;;;;;;5155057;27;19942;-49
2022/02/19 09:00:03;;;;;;;;;;;22.40;46.50;;;;;;5155208;27;19983;-47
2022/02/19 09:02:30;;;;;;;;;;;22.40;46.50;;;;;;5155415;27;19923;-44
2022/02/19 09:04:57;;;;;;;;;;;22.40;46.40;;;;;;5153795;27;20415;-47
2022/02/19 09:07:24;;;;;;;;;;;22.40;46.40;;;;;;5142371;27;20391;-44
2022/02/19 09:09:51;;;;;;;;;;;22.50;46.40;;;;;;5134798;27;19923;-48
2022/02/19 09:12:18;;;;;;;;;;;22.50;46.40;;;;;;5134579;27;19924;-49
2022/02/19 09:14:45;;;;;;;;;;;22.50;46.30;;;;;;5134813;27;19924;-48
2022/02/19 09:17:13;;;;;;;;;;;22.50;46.30;;;;;;5135025;27;20021;-48
2022/02/19 09:19:40;;;;;;;;;;;22.50;46.30;;;;;;5134420;27;19995;-45
2022/02/19 09:22:07;;;;;;;;;;;22.50;46.30;;;;;;5148335;27;20294;-45
2022/02/19 09:24:35;;;;;;;;;;;22.50;46.30;;;;;;5134641;27;19976;-45
2022/02/19 09:27:02;;;;;;;;;;;22.50;46.30;;;;;;5134361;27;19923;-45
2022/02/19 09:29:29;;;;;;;;;;;22.50;46.30;;;;;;5134444;28;19924;-48
2022/02/19 09:31:56;;;;;;;;;;;22.50;46.30;;;;;;5134193;28;19972;-46
2022/02/19 09:34:23;;;;;;;;;;;22.50;46.30;;;;;;5134753;28;19927;-47
2022/02/19 09:36:51;;;;;;;;;;;22.50;46.30;;;;;;5148561;27;20236;-45
2022/02/19 09:39:18;;;;;;;;;;;22.50;46.30;;;;;;5154834;27;19923;-44
2022/02/19 09:41:46;;;;;;;;;;;22.50;46.20;;;;;;5136611;27;20366;-46
2022/02/19 09:44:14;;;;;;;;;;;22.50;46.20;;;;;;5155231;27;19923;-47
2022/02/19 09:46:42;;;;;;;;;;;22.50;46.10;;;;;;5154884;27;19923;-47
2022/02/19 09:49:09;;;;;;;;;;;22.50;46.10;;;;;;5155607;27;19969;-47
2022/02/19 09:51:39;;;;;;;;;;;22.50;46.10;;;;;;5156886;27;19923;-44
2022/02/19 09:54:06;;;;;;;;;;;22.50;46.10;;;;;;5159487;27;19975;-46
2022/02/19 09:56:33;;;;;;;;;;;22.60;46.20;;;;;;5140737;27;19927;-46
2022/02/19 09:59:00;;;;;;;;;;;22.60;46.10;;;;;;5159213;27;19923;-47
2022/02/19 10:01:27;;;;;;;;;;;22.60;46.10;;;;;;5159305;27;19923;-46
2022/02/19 10:04:01;;;;;;;;;;;22.60;46.10;;;;;;5159261;27;19923;-47
2022/02/19 10:06:33;;;;;;;;;;;22.60;46.10;;;;;;5140777;27;19923;-45
2022/02/19 10:09:09;;;;;;;;;;;22.60;46.10;;;;;;5152950;27;19923;-45
2022/02/19 10:11:37;;;;;;;;;;;22.70;46.10;;;;;;5138351;27;20340;-49
2022/02/19 10:14:20;;;;;;;;;;;22.70;46.10;;;;;;5138328;27;19931;-44
2022/02/19 10:17:07;;;;;;;;;;;22.70;46.00;;;;;;5138303;27;20007;-48
2022/02/19 10:19:53;;;;;;;;;;;22.70;46.00;;;;;;5137867;27;19973;-47
2022/02/19 10:22:21;;;;;;;;;;;22.70;45.90;;;;;;5152433;27;19923;-49
2022/02/19 10:24:50;;;;;;;;;;;22.70;45.90;;;;;;5158773;27;19927;-47
2022/02/19 10:27:18;;;;;;;;;;;22.70;45.90;;;;;;5157530;27;19968;-44
2022/02/19 10:29:49;;;;;;;;;;;22.70;45.90;;;;;;5157553;27;20154;-47
2022/02/19 10:32:18;;;;;;;;;;;22.70;45.90;;;;;;5158404;27;20401;-44
2022/02/19 10:35:06;;;;;;;;;;;22.70;45.90;;;;;;5158338;27;20448;-48
2022/02/19 10:38:03;;;;;;;;;;;22.70;45.90;;;;;;5157569;27;19927;-50
2022/02/19 10:40:36;;;;;;;;;;;22.70;45.90;;;;;;5137380;27;19946;-48
2022/02/19 10:43:04;;;;;;;;;;;22.70;45.90;;;;;;5157876;27;19927;-47
2022/02/19 10:45:32;;;;;;;;;;;22.70;45.90;;;;;;5158743;27;19972;-47
2022/02/19 10:48:12;;;;;;;;;;;22.70;45.90;;;;;;5158268;27;19931;-49
2022/02/19 10:50:40;;;;;;;;;;;22.70;45.80;;;;;;5159118;27;19923;-46
2022/02/19 10:53:08;;;;;;;;;;;22.80;45.90;;;;;;5156883;27;19969;-47
2022/02/19 10:55:37;;;;;;;;;;;22.80;45.90;;;;;;5158262;27;19923;-48
2022/02/19 10:58:05;;;;;;;;;;;22.80;45.90;;;;;;5157928;27;19927;-49
2022/02/19 11:00:36;;;;;;;;;;;22.80;45.80;;;;;;5127873;27;20328;-46
2022/02/19 11:03:04;;;;;;;;;;;22.80;45.80;;;;;;5119129;27;19982;-45
2022/02/19 11:05:32;;;;;;;;;;;22.80;45.70;;;;;;5137295;27;19930;-45
2022/02/19 11:08:00;;;;;;;;;;;22.80;45.80;;;;;;5152894;27;19923;-45
2022/02/19 11:10:28;;;;;;;;;;;22.80;45.70;;;;;;5157678;27;19923;-51
2022/02/19 11:12:56;;;;;;;;;;;22.80;45.70;;;;;;5157609;27;19923;-50
2022/02/19 11:15:23;;;;;;;;;;;22.90;45.70;;;;;;5157852;27;19926;-47
2022/02/19 11:17:51;;;;;;;;;;;22.90;45.70;;;;;;5157603;27;19923;-48
2022/02/19 11:20:18;;;;;;;;;;;22.90;45.70;;;;;;5157566;27;20370;-46
2022/02/19 11:22:46;;;;;;;;;;;22.90;45.60;;;;;;5156358;27;19923;-47
2022/02/19 11:25:20;;;;;;;;;;;22.90;45.60;;;;;;5157586;27;19923;-45
2022/02/19 11:27:51;;;;;;;;;;;22.90;45.60;;;;;;5138953;27;19923;-43
2022/02/19 11:30:20;;;;;;;;;;;22.90;45.60;;;;;;5149522;27;19966;-50
2022/02/19 11:32:48;;;;;;;;;;;22.90;45.50;;;;;;5136851;27;20010;-47
2022/02/19 11:35:29;;;;;;;;;;;22.90;45.50;;;;;;5136744;27;20424;-49
2022/02/19 11:37:56;;;;;;;;;;;23.00;45.50;;;;;;5149540;27;20290;-45
2022/02/19 11:40:25;;;;;;;;;;;23.00;45.50;;;;;;5139049;27;19927;-50
2022/02/19 11:42:53;;;;;;;;;;;23.00;45.50;;;;;;5157374;27;20332;-46
2022/02/19 11:45:31;;;;;;;;;;;23.00;45.50;;;;;;5138512;27;20363;-46
2022/02/19 11:48:01;;;;;;;;;;;23.00;45.50;;;;;;5136673;27;19923;-45
2022/02/19 11:50:29;;;;;;;;;;;23.00;45.60;;;;;;5118004;27;19931;-47
2022/02/19 11:53:09;;;;;;;;;;;23.00;45.60;;;;;;5135656;27;20018;-43
2022/02/19 11:55:39;;;;;;;;;;;23.00;45.50;;;;;;5136340;27;19923;-49
2022/02/19 11:58:07;;;;;;;;;;;23.00;45.60;;;;;;5136330;27;19966;-48
2022/02/19 12:00:44;;;;;;;;;;;22.90;45.60;;;;;;5136022;27;19974;-46
2022/02/19 12:03:21;;;;;;;;;;;23.00;45.60;;;;;;5136304;27;19973;-45
2022/02/19 12:06:07;;;;;;;;;;;23.00;45.60;;;;;;5136187;27;19923;-42
2022/02/19 12:08:46;;;;;;;;;;;23.00;45.60;;;;;;5151008;27;19923;-46
2022/02/19 12:11:20;;;;;;;;;;;23.00;45.60;;;;;;5156767;27;19979;-46
2022/02/19 12:13:48;;;;;;;;;;;23.00;45.70;;;;;;5155657;27;19966;-45
2022/02/19 12:16:27;;;;;;;;;;;23.00;45.70;;;;;;5156356;27;19972;-45
2022/02/19 12:18:57;;;;;;;;;;;23.00;45.60;;;;;;5156248;27;19927;-42
2022/02/19 12:21:31;;;;;;;;;;;23.00;45.60;;;;;;5156027;27;19974;-48
2022/02/19 12:24:15;;;;;;;;;;;23.00;45.60;;;;;;5155278;27;19923;-43
2022/02/19 12:26:54;;;;;;;;;;;23.00;45.60;;;;;;5150150;27;19923;-47
2022/02/19 12:29:22;;;;;;;;;;;23.00;45.60;;;;;;5135631;27;19924;-47
2022/02/19 12:32:05;;;;;;;;;;;23.00;45.60;;;;;;5135326;27;19923;-46
2022/02/19 12:34:34;;;;;;;;;;;23.00;45.50;;;;;;5135281;27;19931;-46
2022/02/19 12:37:12;;;;;;;;;;;23.00;45.50;;;;;;5135071;27;19980;-44
2022/02/19 12:39:43;;;;;;;;;;;23.00;45.60;;;;;;5156782;27;19923;-47
2022/02/19 12:42:17;;;;;;;;;;;23.00;45.50;;;;;;5156178;27;19982;-46
2022/02/19 12:44:46;;;;;;;;;;;23.00;45.60;;;;;;5155667;27;20022;-45
2022/02/19 12:47:15;;;;;;;;;;;23.00;45.50;;;;;;5155965;27;19958;-45
2022/02/19 12:49:43;;;;;;;;;;;23.10;45.60;;;;;;5146288;27;19969;-44
2022/02/19 12:52:10;;;;;;;;;;;23.00;45.50;;;;;;5134787;27;19924;-43
2022/02/19 12:54:38;;;;;;;;;;;23.00;45.50;;;;;;5155782;27;19923;-44
2022/02/19 12:57:06;;;;;;;;;;;23.10;45.60;;;;;;5155606;27;19927;-42
2022/02/19 12:59:35;;;;;;;;;;;23.10;45.60;;;;;;5155851;27;20304;-45
2022/02/19 13:02:03;;;;;;;;;;;23.10;45.60;;;;;;5156048;27;20359;-44
2022/02/19 13:04:31;;;;;;;;;;;23.10;45.60;;;;;;5131882;27;19992;-45
2022/02/19 13:06:59;;;;;;;;;;;23.10;45.60;;;;;;5135310;27;19923;-45
2022/02/19 13:09:27;;;;;;;;;;;23.10;45.60;;;;;;5152012;27;19924;-46
2022/02/19 13:11:54;;;;;;;;;;;23.10;45.50;;;;;;5155418;27;19929;-44
2022/02/19 13:14:25;;;;;;;;;;;23.10;45.50;;;;;;5155363;27;19952;-46
2022/02/19 13:16:58;;;;;;;;;;;23.10;45.60;;;;;;5155661;27;19930;-45
2022/02/19 13:19:25;;;;;;;;;;;23.10;45.50;;;;;;5155186;27;19934;-47
2022/02/19 13:21:59;;;;;;;;;;;23.10;45.50;;;;;;5155338;27;19923;-46
2022/02/19 13:24:31;;;;;;;;;;;23.10;45.50;;;;;;5154067;27;19923;-43
2022/02/19 13:27:10;;;;;;;;;;;23.20;45.60;;;;;;5155194;27;20461;-46
2022/02/19 13:29:37;;;;;;;;;;;23.20;45.50;;;;;;5155441;27;19952;-47
2022/02/19 13:32:05;;;;;;;;;;;23.20;45.50;;;;;;5155390;27;19923;-44
2022/02/19 13:34:33;;;;;;;;;;;23.20;45.50;;;;;;5153042;27;20009;-47
2022/02/19 13:37:00;;;;;;;;;;;23.20;45.50;;;;;;5134412;28;20435;-44
2022/02/19 13:39:38;;;;;;;;;;;23.20;45.50;;;;;;5149365;27;20324;-46
2022/02/19 13:42:05;;;;;;;;;;;23.10;45.50;;;;;;5155669;27;19923;-45
2022/02/19 13:44:53;;;;;;;;;;;23.20;45.60;;;;;;5155343;27;19999;-48
2022/02/19 13:47:27;;;;;;;;;;;23.20;45.60;;;;;;5155059;27;19981;-44
2022/02/19 13:49:55;;;;;;;;;;;23.10;45.50;;;;;;5155252;27;19923;-45
2022/02/19 13:52:25;;;;;;;;;;;23.20;45.60;;;;;;5155022;27;19930;-47
2022/02/19 13:54:53;;;;;;;;;;;23.20;45.60;;;;;;5153800;27;19987;-45
2022/02/19 13:57:22;;;;;;;;;;;23.20;45.60;;;;;;5154290;27;19991;-45
2022/02/19 14:00:00;;;;;;;;;;;23.20;45.60;;;;;;5155117;27;19923;-45
2022/02/19 14:02:28;;;;;;;;;;;23.20;45.60;;;;;;5155178;27;19930;-44
2022/02/19 14:05:00;;;;;;;;;;;23.20;45.60;;;;;;5155100;27;19923;-43
2022/02/19 14:07:27;;;;;;;;;;;23.20;45.60;;;;;;5155173;27;19930;-45
2022/02/19 14:10:15;;;;;;;;;;;23.20;45.60;;;;;;5153870;27;19991;-47
2022/02/19 14:12:42;;;;;;;;;;;23.20;45.60;;;;;;5155307;27;20366;-42
2022/02/19 14:15:14;;;;;;;;;;;23.20;45.60;;;;;;5148626;27;19923;-45
2022/02/19 14:17:45;;;;;;;;;;;23.20;45.60;;;;;;5134356;28;19924;-46
2022/02/19 14:20:19;;;;;;;;;;;23.20;45.60;;;;;;5113471;28;19924;-45
2022/02/19 14:22:50;;;;;;;;;;;23.20;45.60;;;;;;5113605;28;19930;-47
2022/02/19 14:25:20;;;;;;;;;;;23.20;45.70;;;;;;5131547;28;19923;-47
2022/02/19 14:27:54;;;;;;;;;;;23.20;45.80;;;;;;5134234;27;20389;-43
2022/02/19 14:30:22;;;;;;;;;;;23.20;45.80;;;;;;5133087;28;19971;-44
2022/02/19 14:32:50;;;;;;;;;;;23.20;45.80;;;;;;5133872;27;19924;-47